Time;durP1;ratioP1;P1;durP2;ratioP2;P2;SDS_P1;SDS_P2;PMS_P1;PMS_P2;Temp;Humidity;BMP_temperature;BMP_pressure;BME280_temperature;BME280_humidity;BME280_pressure;Samples;Min_cycle;Max_cycle;Signal;HPM_P1;HPM_P2
2022/09/13 00:00:52;;;;;;;54.17;35.80;;;18.70;99.90;;;;;;5078443;28;20493;-54
2022/09/13 00:03:19;;;;;;;43.50;38.83;;;18.70;99.90;;;;;;5073424;28;20493;-57
2022/09/13 00:05:45;;;;;;;46.17;39.05;;;18.60;99.90;;;;;;5091302;28;20047;-60
2022/09/13 00:08:11;;;;;;;42.00;35.63;;;18.60;99.90;;;;;;5075967;28;20036;-53
2022/09/13 00:10:37;;;;;;;;;;;18.50;99.90;;;;;;5073307;28;20047;-54
2022/09/13 00:13:05;;;;;;;22.55;19.23;;;18.50;99.90;;;;;;5074438;28;19920;-59
2022/09/13 00:15:31;;;;;;;14.60;13.05;;;18.40;99.90;;;;;;5082883;28;20046;-56
2022/09/13 00:17:56;;;;;;;;;;;18.40;99.90;;;;;;5081757;28;20045;-54
2022/09/13 00:20:22;;;;;;;15.07;11.75;;;18.30;99.90;;;;;;5081223;28;20007;-56
2022/09/13 00:22:48;;;;;;;19.17;13.57;;;18.30;99.90;;;;;;5078545;28;20037;-56
2022/09/13 00:25:13;;;;;;;11.75;10.55;;;18.30;99.90;;;;;;5075299;28;20048;-58
2022/09/13 00:27:39;;;;;;;31.40;24.02;;;18.20;99.90;;;;;;5090050;28;20032;-57
2022/09/13 00:30:06;;;;;;;47.55;35.42;;;18.20;99.90;;;;;;5073759;28;20090;-57
2022/09/13 00:32:34;;;;;;;12.52;11.25;;;18.10;99.90;;;;;;5104250;28;20548;-55
2022/09/13 00:35:00;;;;;;;15.38;12.90;;;18.10;99.90;;;;;;5113442;28;20209;-52
2022/09/13 00:37:26;;;;;;;19.20;15.95;;;18.10;99.90;;;;;;5112261;28;20070;-57
2022/09/13 00:39:51;;;;;;;24.70;17.88;;;18.10;99.90;;;;;;5079316;28;20040;-53
2022/09/13 00:42:17;;;;;;;21.70;15.93;;;18.10;99.90;;;;;;5082761;28;20576;-59
2022/09/13 00:44:56;;;;;;;20.90;15.23;;;18.00;99.90;;;;;;5093230;28;20040;-55
2022/09/13 00:47:28;;;;;;;13.85;10.88;;;18.00;99.90;;;;;;5094479;28;20473;-54
2022/09/13 00:50:14;;;;;;;15.05;12.88;;;18.00;99.90;;;;;;5092551;28;20118;-58
2022/09/13 00:52:43;;;;;;;35.15;22.10;;;18.00;99.90;;;;;;5092841;28;20036;-57
2022/09/13 00:55:17;;;;;;;15.10;11.75;;;18.00;99.90;;;;;;5093017;28;20043;-58
2022/09/13 00:57:43;;;;;;;13.27;10.85;;;17.90;99.90;;;;;;5094060;28;20455;-55
2022/09/13 01:00:12;;;;;;;12.45;11.18;;;17.90;99.90;;;;;;5082260;28;20048;-56
2022/09/13 01:02:56;;;;;;;15.23;11.57;;;17.90;99.90;;;;;;5072510;28;20045;-58
2022/09/13 01:05:26;;;;;;;14.00;12.27;;;17.90;99.90;;;;;;5098286;28;20044;-55
2022/09/13 01:07:53;;;;;;;14.05;11.88;;;17.90;99.90;;;;;;5091267;27;20034;-57
2022/09/13 01:10:22;;;;;;;16.08;12.93;;;17.90;99.90;;;;;;5092751;28;20032;-59
2022/09/13 01:13:11;;;;;;;14.20;12.68;;;17.90;99.90;;;;;;5091627;28;20036;-57
2022/09/13 01:15:37;;;;;;;15.00;12.50;;;17.90;99.90;;;;;;5092673;28;20044;-58
2022/09/13 01:18:04;;;;;;;15.13;13.45;;;17.80;99.90;;;;;;5094105;28;20523;-55
2022/09/13 01:20:53;;;;;;;16.48;13.95;;;17.80;99.90;;;;;;5091717;28;20055;-54
2022/09/13 01:23:46;;;;;;;14.80;12.43;;;17.80;99.90;;;;;;5090725;28;20040;-60
2022/09/13 01:26:33;;;;;;;17.85;13.90;;;17.80;99.90;;;;;;5072389;28;20083;-57
2022/09/13 01:29:50;;;;;;;15.85;13.18;;;17.80;99.90;;;;;;5092258;28;20544;-55
2022/09/13 01:32:34;;;;;;;38.88;28.45;;;17.80;99.90;;;;;;5059920;28;20051;-56
2022/09/13 01:35:12;;;;;;;17.38;15.57;;;17.80;99.90;;;;;;5088765;28;20035;-55
2022/09/13 01:37:51;;;;;;;17.83;14.77;;;17.80;99.90;;;;;;5092728;28;20277;-53
2022/09/13 01:40:47;;;;;;;17.95;13.90;;;17.80;99.90;;;;;;5090045;28;20032;-56
2022/09/13 01:43:33;;;;;;;16.10;14.25;;;17.80;99.90;;;;;;5070592;28;20033;-59
2022/09/13 01:46:07;;;;;;;14.80;13.27;;;17.80;99.90;;;;;;5072050;28;20051;-55
2022/09/13 01:48:58;;;;;;;25.13;17.05;;;17.80;99.90;;;;;;5071784;28;20040;-57
2022/09/13 01:51:43;;;;;;;86.97;48.60;;;17.80;99.90;;;;;;5073189;28;20413;-56
2022/09/13 01:54:33;;;;;;;27.27;19.17;;;17.80;99.90;;;;;;5074555;28;20028;-58
2022/09/13 01:57:11;;;;;;;17.08;13.57;;;17.80;99.90;;;;;;5091714;28;20500;-57
2022/09/13 01:59:53;;;;;;;16.85;14.05;;;17.80;99.90;;;;;;5092962;28;20048;-56
2022/09/13 02:02:32;;;;;;;86.32;34.30;;;17.70;99.90;;;;;;5089863;28;20040;-53
2022/09/13 02:05:34;;;;;;;49.97;23.98;;;17.70;99.90;;;;;;5091384;28;20079;-53
2022/09/13 02:08:04;;;;;;;19.15;15.52;;;17.70;99.90;;;;;;5082145;28;20108;-54
2022/09/13 02:10:36;;;;;;;16.48;14.75;;;17.70;99.90;;;;;;5104540;27;20063;-56
2022/09/13 02:13:06;;;;;;;15.77;13.98;;;17.70;99.90;;;;;;5088618;28;20051;-55
2022/09/13 02:15:50;;;;;;;15.00;13.43;;;17.70;99.90;;;;;;5090954;28;20040;-56
2022/09/13 02:18:22;;;;;;;18.60;15.20;;;17.70;99.90;;;;;;5091760;28;20446;-53
2022/09/13 02:20:50;;;;;;;17.58;14.52;;;17.70;99.90;;;;;;5092698;28;20421;-54
2022/09/13 02:23:47;;;;;;;17.85;15.82;;;17.70;99.90;;;;;;5090400;28;20036;-57
2022/09/13 02:26:14;;;;;;;20.50;16.37;;;17.70;99.90;;;;;;5094810;28;20047;-56
2022/09/13 02:28:49;;;;;;;21.95;16.08;;;17.70;99.90;;;;;;5088671;28;20036;-56
2022/09/13 02:31:20;;;;;;;20.23;16.42;;;17.70;99.90;;;;;;5077014;28;20123;-54
2022/09/13 02:34:08;;;;;;;18.83;15.20;;;17.60;99.90;;;;;;5090097;28;20130;-56
2022/09/13 02:36:41;;;;;;;19.50;16.15;;;17.60;99.90;;;;;;5091109;28;20093;-54
2022/09/13 02:39:16;;;;;;;20.80;16.35;;;17.60;99.90;;;;;;5090997;28;20032;-53
2022/09/13 02:41:42;;;;;;;17.83;15.55;;;17.60;99.90;;;;;;5083938;28;20036;-54
2022/09/13 02:44:33;;;;;;;17.92;16.02;;;17.60;99.90;;;;;;5089783;28;20044;-58
2022/09/13 02:47:34;;;;;;;18.80;15.73;;;17.60;99.90;;;;;;5089444;28;20138;-53
2022/09/13 02:50:15;;;;;;;22.13;17.33;;;17.60;99.90;;;;;;5071147;28;20044;-55
2022/09/13 02:52:43;;;;;;;18.90;16.60;;;17.60;99.90;;;;;;5080853;28;20028;-61
2022/09/13 02:55:14;;;;;;;24.70;18.58;;;17.60;99.90;;;;;;5089961;28;20036;-53
2022/09/13 02:58:03;;;;;;;20.52;17.50;;;17.60;99.90;;;;;;5089801;28;20131;-56
2022/09/13 03:00:30;;;;;;;24.08;18.35;;;17.60;99.90;;;;;;5091292;28;20136;-53
2022/09/13 03:03:01;;;;;;;20.27;17.95;;;17.60;99.90;;;;;;5092027;28;20032;-57
2022/09/13 03:05:26;;;;;;;20.98;18.65;;;17.60;99.90;;;;;;5077734;28;20052;-57
2022/09/13 03:07:53;;;;;;;20.30;18.08;;;17.60;99.90;;;;;;5072758;28;20028;-53
2022/09/13 03:10:22;;;;;;;23.00;19.33;;;17.60;99.90;;;;;;5072490;28;20104;-56
2022/09/13 03:12:50;;;;;;;25.02;19.95;;;17.60;99.90;;;;;;5091348;28;20477;-55
2022/09/13 03:15:29;;;;;;;22.77;20.25;;;17.70;99.90;;;;;;5076842;28;20032;-54
2022/09/13 03:18:36;;;;;;;23.35;19.02;;;17.60;99.90;;;;;;5090643;28;20491;-57
2022/09/13 03:21:21;;;;;;;27.00;21.90;;;17.70;99.90;;;;;;5090625;28;20350;-54
2022/09/13 03:24:14;;;;;;;27.33;22.08;;;17.60;99.90;;;;;;5091307;28;20040;-53
2022/09/13 03:27:05;;;;;;;22.08;19.35;;;17.60;99.90;;;;;;5074297;28;20051;-56
2022/09/13 03:29:36;;;;;;;27.08;21.10;;;17.60;99.90;;;;;;5078820;28;20457;-55
2022/09/13 03:32:41;;;;;;;22.95;20.42;;;17.60;99.90;;;;;;5068971;28;20413;-54
2022/09/13 03:35:27;;;;;;;26.90;21.20;;;17.60;99.90;;;;;;5080739;28;20416;-56
2022/09/13 03:38:07;;;;;;;26.55;21.85;;;17.60;99.90;;;;;;5089508;28;20028;-55
2022/09/13 03:40:48;;;;;;;25.83;21.35;;;17.60;99.90;;;;;;5089496;28;20040;-55
2022/09/13 03:43:34;;;;;;;28.70;21.70;;;17.60;99.90;;;;;;5089881;28;20554;-54
2022/09/13 03:46:23;;;;;;;30.03;23.07;;;17.60;99.90;;;;;;5091296;28;20040;-57
2022/09/13 03:48:50;;;;;;;25.60;21.23;;;17.60;99.90;;;;;;5069222;28;20132;-57
2022/09/13 03:51:16;;;;;;;24.70;19.30;;;17.60;99.90;;;;;;5071554;28;20052;-60
2022/09/13 03:53:46;;;;;;;21.92;19.20;;;17.70;99.90;;;;;;5069171;28;20036;-58
2022/09/13 03:56:13;;;;;;;27.00;20.17;;;17.70;99.90;;;;;;5084883;28;20086;-54
2022/09/13 03:58:39;;;;;;;29.50;21.70;;;17.70;99.90;;;;;;5071628;28;20400;-56
2022/09/13 04:01:05;;;;;;;26.40;22.95;;;17.70;99.90;;;;;;5070119;28;20048;-57
2022/09/13 04:03:31;;;;;;;26.55;21.30;;;17.70;99.90;;;;;;5069612;28;20044;-56
2022/09/13 04:05:56;;;;;;;26.33;22.25;;;17.70;99.90;;;;;;5079668;28;20584;-57
2022/09/13 04:08:22;;;;;;;29.48;22.85;;;17.80;99.90;;;;;;5087074;28;20542;-59
2022/09/13 04:10:50;;;;;;;25.27;21.70;;;17.70;99.90;;;;;;5084630;28;20425;-57
2022/09/13 04:13:16;;;;;;;25.50;21.20;;;17.80;99.90;;;;;;5084593;28;20040;-59
2022/09/13 04:15:42;;;;;;;26.65;21.38;;;17.70;99.90;;;;;;5090265;28;20040;-60
2022/09/13 04:18:08;;;;;;;30.55;22.27;;;17.70;99.90;;;;;;5084375;28;20051;-54
2022/09/13 04:20:34;;;;;;;29.10;22.27;;;17.70;99.90;;;;;;5077781;28;20436;-58
2022/09/13 04:23:00;;;;;;;27.35;21.65;;;17.70;99.90;;;;;;5089354;28;20079;-63
2022/09/13 04:25:26;;;;;;;25.65;21.23;;;17.70;99.90;;;;;;5090236;28;20067;-57
2022/09/13 04:27:57;;;;;;;27.42;21.13;;;17.70;99.90;;;;;;5091153;28;20036;-54
2022/09/13 04:30:22;;;;;;;26.52;21.85;;;17.70;99.90;;;;;;5089975;28;20101;-56
2022/09/13 04:32:48;;;;;;;23.65;20.27;;;17.80;99.90;;;;;;5088638;28;20044;-57
2022/09/13 04:35:16;;;;;;;28.60;21.75;;;17.80;99.90;;;;;;5089684;28;20090;-56
2022/09/13 04:37:43;;;;;;;26.98;20.48;;;17.80;99.90;;;;;;5091161;28;20075;-56
2022/09/13 04:40:09;;;;;;;30.50;22.27;;;17.80;99.90;;;;;;5089310;28;20126;-56
2022/09/13 04:42:34;;;;;;;27.73;21.80;;;17.80;99.90;;;;;;5088087;28;20090;-57
2022/09/13 04:45:00;;;;;;;29.13;21.85;;;17.80;99.90;;;;;;5072738;28;20040;-60
2022/09/13 04:47:26;;;;;;;;;;;17.80;99.90;;;;;;5079431;28;20119;-59
2022/09/13 04:49:52;;;;;;;23.33;19.50;;;17.80;99.90;;;;;;5097064;28;19995;-58
2022/09/13 04:52:17;;;;;;;24.95;21.05;;;17.80;99.90;;;;;;5073190;28;20048;-57
2022/09/13 04:54:43;;;;;;;26.92;20.42;;;17.80;99.90;;;;;;5072505;28;20041;-57
2022/09/13 04:57:08;;;;;;;28.33;22.15;;;17.80;99.90;;;;;;5073119;28;20493;-58
2022/09/13 04:59:34;;;;;;;26.63;20.88;;;17.90;99.90;;;;;;5089523;28;20043;-55
2022/09/13 05:01:59;;;;;;;26.75;22.80;;;17.80;99.90;;;;;;5093887;28;20110;-60
2022/09/13 05:04:25;;;;;;;29.63;22.02;;;17.90;99.90;;;;;;5088518;28;20036;-56
2022/09/13 05:06:51;;;;;;;29.70;24.25;;;17.90;99.90;;;;;;5073922;28;20044;-59
2022/09/13 05:09:17;;;;;;;31.48;23.00;;;17.90;99.90;;;;;;5083575;28;20048;-57
2022/09/13 05:11:42;;;;;;;30.20;23.05;;;17.90;99.90;;;;;;5091077;28;20472;-54
2022/09/13 05:14:09;;;;;;;30.73;21.48;;;17.80;99.90;;;;;;5109755;28;20118;-58
2022/09/13 05:16:35;;;;;;;27.17;22.55;;;17.80;99.90;;;;;;5113267;28;20074;-55
2022/09/13 05:19:01;;;;;;;28.00;22.10;;;17.80;99.90;;;;;;5112854;28;20078;-61
2022/09/13 05:21:28;;;;;;;29.15;23.48;;;17.80;99.90;;;;;;5092414;28;20126;-57
2022/09/13 05:23:55;;;;;;;26.10;23.33;;;17.80;99.90;;;;;;5093484;28;20119;-54
2022/09/13 05:26:22;;;;;;;29.23;24.17;;;17.80;99.90;;;;;;5092185;28;20320;-57
2022/09/13 05:28:48;;;;;;;32.95;24.98;;;17.80;99.90;;;;;;5092460;28;20398;-58
2022/09/13 05:31:23;;;;;;;33.72;24.00;;;17.90;99.90;;;;;;5088769;28;20035;-57
2022/09/13 05:33:54;;;;;;;27.93;22.20;;;17.90;99.90;;;;;;5095932;28;20488;-57
2022/09/13 05:36:19;;;;;;;29.58;23.42;;;17.90;99.90;;;;;;5098010;28;20040;-56
2022/09/13 05:38:45;;;;;;;26.50;23.00;;;17.90;99.90;;;;;;5093605;28;20044;-60
2022/09/13 05:41:11;;;;;;;32.03;22.27;;;17.90;99.90;;;;;;5096310;28;20480;-56
2022/09/13 05:43:36;;;;;;;30.17;23.13;;;17.90;99.90;;;;;;5091723;28;20040;-53
2022/09/13 05:46:09;;;;;;;32.85;24.83;;;17.90;99.90;;;;;;5091912;28;20107;-58
2022/09/13 05:48:34;;;;;;;25.33;21.88;;;17.90;99.90;;;;;;5091224;28;20051;-53
2022/09/13 05:51:12;;;;;;;32.13;24.67;;;17.90;99.90;;;;;;5090897;28;20044;-55
2022/09/13 05:53:39;;;;;;;31.42;24.25;;;17.90;99.90;;;;;;5074623;28;20601;-60
2022/09/13 05:56:06;;;;;;;33.25;23.95;;;17.90;99.90;;;;;;5088640;28;20063;-57
2022/09/13 05:58:33;;;;;;;27.83;23.55;;;17.90;99.90;;;;;;5072508;28;20102;-57
2022/09/13 06:00:59;;;;;;;30.27;23.88;;;17.90;99.90;;;;;;5071858;28;20106;-53
2022/09/13 06:03:25;;;;;;;30.83;24.50;;;17.90;99.90;;;;;;5082013;28;20036;-54
2022/09/13 06:05:55;;;;;;;34.72;25.67;;;17.90;99.90;;;;;;5096856;28;20096;-54
2022/09/13 06:08:22;;;;;;;31.75;24.02;;;17.90;99.90;;;;;;5099618;28;20381;-56
2022/09/13 06:10:59;;;;;;;28.83;23.95;;;17.90;99.90;;;;;;5094926;28;20184;-58
2022/09/13 06:13:26;;;;;;;33.30;24.30;;;17.90;99.90;;;;;;5093026;28;20032;-57
2022/09/13 06:15:53;;;;;;;29.63;24.02;;;18.00;99.90;;;;;;5099929;28;20035;-53
2022/09/13 06:18:19;;;;;;;32.13;24.67;;;18.00;99.90;;;;;;5098041;28;20071;-56
2022/09/13 06:20:45;;;;;;;34.63;24.65;;;18.00;99.90;;;;;;5101501;28;20499;-58
2022/09/13 06:23:10;;;;;;;33.60;23.95;;;18.00;99.90;;;;;;5098311;28;20044;-55
2022/09/13 06:25:36;;;;;;;28.63;23.38;;;18.00;99.90;;;;;;5095721;28;20047;-58
2022/09/13 06:28:03;;;;;;;28.30;23.63;;;18.00;99.90;;;;;;5100356;28;20597;-57
2022/09/13 06:30:28;;;;;;;33.63;25.52;;;18.10;99.90;;;;;;5100202;28;20040;-60
2022/09/13 06:32:57;;;;;;;31.80;24.73;;;18.00;99.90;;;;;;5096927;28;20046;-61
2022/09/13 06:35:23;;;;;;;34.25;23.83;;;18.10;99.90;;;;;;5101210;28;20031;-56
2022/09/13 06:37:49;;;;;;;24.63;17.90;;;18.10;99.90;;;;;;5095997;28;20035;-53
2022/09/13 06:40:15;;;;;;;23.95;18.65;;;18.10;99.90;;;;;;5098969;28;20484;-55
2022/09/13 06:42:41;;;;;;;27.55;22.77;;;18.10;99.90;;;;;;5099924;28;20093;-55
2022/09/13 06:45:07;;;;;;;28.17;22.65;;;18.10;99.90;;;;;;5100600;28;20501;-53
2022/09/13 06:47:33;;;;;;;28.13;23.13;;;18.20;99.90;;;;;;5093127;28;20043;-56
2022/09/13 06:49:59;;;;;;;27.35;23.38;;;18.10;99.90;;;;;;5079549;28;20048;-52
2022/09/13 06:52:26;;;;;;;26.90;21.55;;;18.20;99.90;;;;;;5095869;28;20043;-54
2022/09/13 06:54:52;;;;;;;28.75;22.67;;;18.20;99.90;;;;;;5086361;28;20085;-52
2022/09/13 06:57:18;;;;;;;23.95;19.83;;;18.20;99.90;;;;;;5079573;28;20048;-52
2022/09/13 06:59:43;;;;;;;23.23;19.75;;;18.30;99.90;;;;;;5092915;28;20062;-52
2022/09/13 07:02:09;;;;;;;21.45;17.75;;;18.30;99.90;;;;;;5103921;28;20093;-54
2022/09/13 07:04:35;;;;;;;;;;;18.30;99.90;;;;;;5090747;28;20047;-52
2022/09/13 07:07:01;;;;;;;18.23;15.73;;;18.30;99.90;;;;;;5090445;28;19920;-50
2022/09/13 07:09:26;;;;;;;18.50;12.48;;;18.30;99.90;;;;;;5092601;28;20031;-52
2022/09/13 07:11:54;;;;;;;17.85;12.00;;;18.30;99.90;;;;;;5102622;28;20508;-54
2022/09/13 07:14:22;;;;;;;13.45;9.35;;;18.30;99.90;;;;;;5105932;28;20028;-54
2022/09/13 07:16:49;;;;;;;13.00;9.27;;;18.30;99.90;;;;;;5090650;28;20397;-54
2022/09/13 07:19:21;;;;;;;10.35;8.38;;;18.30;99.90;;;;;;5091596;28;20111;-50
2022/09/13 07:21:48;;;;;;;9.32;7.20;;;18.40;99.90;;;;;;5091729;28;20077;-50
2022/09/13 07:24:15;;;;;;;10.85;5.88;;;18.40;99.90;;;;;;5098528;28;20547;-54
2022/09/13 07:26:41;;;;;;;8.00;4.57;;;18.40;99.90;;;;;;5107820;28;20040;-50
2022/09/13 07:29:10;;;;;;;6.60;4.95;;;18.40;99.90;;;;;;5083148;28;20040;-52
2022/09/13 07:31:38;;;;;;;9.63;3.65;;;18.40;99.90;;;;;;5083202;28;20040;-53
2022/09/13 07:34:07;;;;;;;8.57;3.08;;;18.40;99.90;;;;;;5075602;28;20337;-51
2022/09/13 07:36:34;;;;;;;6.13;1.77;;;18.40;99.90;;;;;;5081910;28;20326;-54
2022/09/13 07:39:00;;;;;;;7.43;1.67;;;18.40;99.90;;;;;;5075948;28;20317;-51
2022/09/13 07:41:28;;;;;;;4.47;1.77;;;18.40;99.90;;;;;;5070317;28;20177;-50
2022/09/13 07:43:54;;;;;;;3.78;1.55;;;18.40;99.90;;;;;;5071887;28;20048;-50
2022/09/13 07:46:22;;;;;;;3.75;1.50;;;18.40;99.90;;;;;;5087029;28;20036;-50
2022/09/13 07:48:50;;;;;;;7.68;1.98;;;18.40;99.90;;;;;;5082367;28;20029;-50
2022/09/13 07:51:21;;;;;;;7.53;1.88;;;18.30;99.90;;;;;;5080534;28;20035;-51
2022/09/13 07:53:49;;;;;;;5.60;1.83;;;18.40;99.90;;;;;;5089416;28;20039;-50
2022/09/13 07:56:17;;;;;;;4.40;2.05;;;18.30;99.90;;;;;;5089673;28;20063;-50
2022/09/13 07:58:45;;;;;;;5.38;1.75;;;18.30;99.90;;;;;;5087851;28;20044;-52
2022/09/13 08:01:15;;;;;;;4.35;2.03;;;18.30;99.90;;;;;;5087883;28;20068;-53
2022/09/13 08:03:41;;;;;;;3.72;1.73;;;18.30;99.90;;;;;;5073271;28;20119;-50
2022/09/13 08:06:07;;;;;;;8.50;1.95;;;18.40;99.90;;;;;;5069858;28;20198;-49
2022/09/13 08:08:35;;;;;;;5.97;2.05;;;18.40;99.90;;;;;;5079119;28;20043;-50
2022/09/13 08:11:02;;;;;;;3.45;1.95;;;18.50;99.90;;;;;;5069863;28;20040;-52
2022/09/13 08:13:28;;;;;;;7.57;2.35;;;18.60;99.90;;;;;;5081411;28;20047;-53
2022/09/13 08:15:54;;;;;;;5.20;1.25;;;18.60;99.90;;;;;;5093456;28;20497;-50
2022/09/13 08:18:20;;;;;;;6.40;1.98;;;18.70;99.90;;;;;;5083983;28;20048;-50
2022/09/13 08:20:46;;;;;;;3.13;1.52;;;18.80;99.90;;;;;;5091689;28;20048;-51
2022/09/13 08:23:13;;;;;;;6.18;1.92;;;18.80;99.90;;;;;;5089286;28;20120;-52
2022/09/13 08:25:39;;;;;;;4.68;1.00;;;18.90;99.90;;;;;;5081354;28;20536;-50
2022/09/13 08:28:05;;;;;;;6.35;0.90;;;19.00;99.90;;;;;;5073424;28;20119;-52
2022/09/13 08:30:34;;;;;;;10.73;1.40;;;19.00;99.90;;;;;;5087540;28;20072;-52
2022/09/13 08:33:01;;;;;;;4.53;1.13;;;19.10;99.90;;;;;;5092226;28;20284;-58
2022/09/13 08:35:27;;;;;;;5.57;0.90;;;19.10;99.90;;;;;;5092322;28;20082;-50
2022/09/13 08:37:53;;;;;;;;;;;19.20;99.90;;;;;;5074041;28;20041;-50
2022/09/13 08:40:19;;;;;;;9.63;1.40;;;19.20;99.90;;;;;;5085106;28;19972;-52
2022/09/13 08:43:06;;;;;;;5.65;0.73;;;19.30;99.90;;;;;;5089481;28;20040;-51
2022/09/13 08:45:32;;;;;;;5.20;0.95;;;19.40;99.90;;;;;;5073308;28;20771;-50
2022/09/13 08:48:03;;;;;;;4.20;0.40;;;19.40;99.90;;;;;;5079453;28;20033;-50
2022/09/13 08:50:32;;;;;;;2.03;0.40;;;19.40;99.90;;;;;;5077695;28;20470;-54
2022/09/13 08:53:22;;;;;;;3.22;0.35;;;19.40;99.90;;;;;;5070948;28;20541;-51
2022/09/13 08:56:09;;;;;;;3.33;0.55;;;19.40;99.90;;;;;;5072892;28;20040;-51
2022/09/13 08:58:56;;;;;;;11.27;0.50;;;19.40;99.90;;;;;;5078606;28;20101;-54
2022/09/13 09:01:36;;;;;;;10.73;1.85;;;19.50;99.90;;;;;;5088672;28;20413;-52
2022/09/13 09:04:15;;;;;;;5.45;0.40;;;19.60;99.90;;;;;;5095057;28;20040;-53
2022/09/13 09:06:41;;;;;;;5.25;0.40;;;19.70;99.90;;;;;;5088273;28;20121;-57
2022/09/13 09:09:17;;;;;;;5.55;0.77;;;19.70;99.90;;;;;;5082874;28;20439;-57
2022/09/13 09:11:55;;;;;;;5.53;0.40;;;19.70;99.90;;;;;;5094788;28;20035;-57
2022/09/13 09:14:37;;;;;;;1.25;0.55;;;19.80;99.90;;;;;;5092293;28;20103;-57
2022/09/13 09:17:25;;;;;;;8.02;0.55;;;19.80;99.90;;;;;;5087618;28;20512;-52
2022/09/13 09:20:17;;;;;;;4.20;0.75;;;20.00;99.90;;;;;;5103196;28;20180;-56
2022/09/13 09:22:44;;;;;;;3.03;0.80;;;20.20;99.90;;;;;;5069198;28;20550;-56
2022/09/13 09:25:11;;;;;;;4.70;0.63;;;20.40;99.90;;;;;;5089936;28;20051;-55
2022/09/13 09:27:36;;;;;;;1.98;0.43;;;20.60;99.90;;;;;;5087501;28;20051;-56
2022/09/13 09:30:02;;;;;;;;;;;20.80;99.90;;;;;;5085578;28;20036;-58
2022/09/13 09:32:43;;;;;;;4.03;0.30;;;21.00;99.90;;;;;;5082613;28;19923;-55
2022/09/13 09:35:30;;;;;;;8.60;0.50;;;21.10;99.90;;;;;;5073088;28;20036;-57
2022/09/13 09:37:58;;;;;;;;;;;21.10;99.90;;;;;;5070734;28;20051;-56
2022/09/13 09:40:24;;;;;;;10.15;0.45;;;21.00;99.90;;;;;;5079997;28;19935;-55
2022/09/13 09:42:49;;;;;;;;;;;21.00;99.90;;;;;;5078228;28;20112;-51
2022/09/13 09:45:28;;;;;;;3.00;0.68;;;21.00;99.90;;;;;;5079271;28;20634;-51
2022/09/13 09:47:56;;;;;;;4.25;0.28;;;21.00;99.90;;;;;;5093569;28;20061;-51
2022/09/13 09:50:27;;;;;;;2.95;0.28;;;21.00;99.90;;;;;;5107384;28;20032;-51
2022/09/13 09:53:03;;;;;;;2.45;0.40;;;21.10;99.90;;;;;;5090529;28;20055;-59
2022/09/13 09:55:30;;;;;;;4.85;0.93;;;21.20;99.90;;;;;;5084251;28;20040;-54
2022/09/13 09:58:10;;;;;;;1.00;0.28;;;21.20;99.90;;;;;;5069646;28;20542;-52
2022/09/13 10:00:51;;;;;;;1.98;0.30;;;21.20;99.90;;;;;;5077226;28;20036;-52
2022/09/13 10:03:19;;;;;;;2.47;0.38;;;21.30;99.90;;;;;;5088678;28;20051;-50
2022/09/13 10:05:46;;;;;;;3.83;0.60;;;21.40;99.90;;;;;;5087308;28;20087;-55
2022/09/13 10:08:33;;;;;;;5.55;0.55;;;21.50;99.90;;;;;;5086714;28;20764;-55
2022/09/13 10:10:59;;;;;;;8.15;0.70;;;21.60;99.90;;;;;;5085882;28;20036;-51
2022/09/13 10:13:26;;;;;;;2.40;0.35;;;21.80;99.90;;;;;;5090219;28;20034;-59
2022/09/13 10:15:55;;;;;;;2.28;0.22;;;21.90;99.90;;;;;;5096320;28;20262;-51
2022/09/13 10:18:22;;;;;;;3.95;0.38;;;22.00;99.90;;;;;;5085407;28;20666;-53
2022/09/13 10:21:04;;;;;;;3.00;0.20;;;22.10;99.90;;;;;;5087277;28;20123;-52
2022/09/13 10:23:31;;;;;;;5.38;0.20;;;22.20;99.90;;;;;;5086456;28;20046;-53
2022/09/13 10:26:13;;;;;;;4.00;0.20;;;22.20;99.90;;;;;;5088234;28;20062;-54
2022/09/13 10:29:06;;;;;;;3.15;0.20;;;22.30;99.90;;;;;;5086510;28;20536;-54
2022/09/13 10:31:38;;;;;;;1.42;0.30;;;22.40;99.70;;;;;;5087497;28;20044;-53
2022/09/13 10:34:16;;;;;;;4.88;0.35;;;22.50;99.50;;;;;;5075612;28;20044;-52
2022/09/13 10:36:53;;;;;;;0.93;0.10;;;22.60;99.40;;;;;;5077110;28;20385;-54
2022/09/13 10:39:21;;;;;;;2.47;0.10;;;22.70;99.00;;;;;;5066855;28;20641;-52
2022/09/13 10:42:08;;;;;;;2.03;0.20;;;22.70;99.80;;;;;;5066606;28;20040;-57
2022/09/13 10:44:43;;;;;;;;;;;22.80;99.10;;;;;;5085244;28;20044;-55
2022/09/13 10:47:19;;;;;;;3.92;0.47;;;23.00;99.40;;;;;;5087002;28;19935;-52
2022/09/13 10:49:50;;;;;;;2.63;0.38;;;23.10;98.90;;;;;;5087522;28;20132;-51
2022/09/13 10:52:27;;;;;;;4.55;0.17;;;23.10;98.60;;;;;;5066522;28;20374;-53
2022/09/13 10:54:54;;;;;;;4.70;0.13;;;23.10;98.00;;;;;;5066062;28;20049;-50
2022/09/13 10:57:34;;;;;;;2.60;0.20;;;23.10;97.90;;;;;;5077654;28;20051;-58
2022/09/13 11:00:02;;;;;;;2.78;0.45;;;23.20;97.30;;;;;;5101551;28;20062;-53
2022/09/13 11:02:46;;;;;;;1.70;0.10;;;23.20;97.70;;;;;;5105712;28;20054;-55
2022/09/13 11:05:37;;;;;;;1.33;0.10;;;23.30;96.40;;;;;;5101723;28;20040;-55
2022/09/13 11:08:27;;;;;;;0.90;0.20;;;23.40;96.50;;;;;;5102764;28;20048;-57
2022/09/13 11:11:00;;;;;;;1.80;0.10;;;23.40;96.00;;;;;;5087392;28;20043;-59
2022/09/13 11:13:42;;;;;;;2.03;0.20;;;23.40;96.90;;;;;;5080484;28;20119;-54
2022/09/13 11:16:36;;;;;;;1.17;0.20;;;23.50;96.60;;;;;;5084519;28;20043;-51
2022/09/13 11:19:23;;;;;;;2.03;0.40;;;23.50;95.80;;;;;;5087270;28;20089;-51
2022/09/13 11:22:10;;;;;;;1.98;0.10;;;23.60;96.10;;;;;;5087952;28;20031;-52
2022/09/13 11:24:58;;;;;;;6.40;0.20;;;23.60;94.60;;;;;;5068491;28;20044;-53
2022/09/13 11:27:49;;;;;;;0.40;0.10;;;23.60;94.80;;;;;;5082580;28;20052;-56
2022/09/13 11:30:20;;;;;;;1.50;0.20;;;23.50;95.10;;;;;;5074454;28;20127;-53
2022/09/13 11:33:12;;;;;;;3.33;0.40;;;23.50;95.00;;;;;;5087144;28;20080;-59
2022/09/13 11:36:03;;;;;;;3.03;0.30;;;23.50;94.70;;;;;;5090538;28;20036;-57
2022/09/13 11:38:45;;;;;;;5.97;0.20;;;23.60;94.80;;;;;;5086277;28;20032;-53
2022/09/13 11:41:28;;;;;;;4.55;0.75;;;23.40;93.90;;;;;;5066361;28;20377;-58
2022/09/13 11:44:22;;;;;;;1.27;0.13;;;23.40;94.70;;;;;;5070783;28;20032;-53
2022/09/13 11:47:07;;;;;;;3.63;0.20;;;23.50;94.70;;;;;;5065497;28;20047;-59
2022/09/13 11:49:52;;;;;;;2.88;0.10;;;23.50;94.80;;;;;;5080947;28;20044;-56
2022/09/13 11:52:31;;;;;;;0.52;0.10;;;23.60;94.80;;;;;;5092723;28;20127;-56
2022/09/13 11:55:15;;;;;;;2.38;0.20;;;23.60;94.50;;;;;;5092935;28;20422;-57
2022/09/13 11:57:57;;;;;;;3.53;0.47;;;23.60;94.30;;;;;;5092513;28;20043;-56
2022/09/13 12:00:40;;;;;;;2.40;0.30;;;23.60;93.90;;;;;;5100865;28;20032;-58
2022/09/13 12:03:09;;;;;;;0.50;0.10;;;23.60;94.10;;;;;;5099369;28;20048;-59
2022/09/13 12:05:48;;;;;;;2.05;0.10;;;23.60;94.50;;;;;;5101108;28;20047;-57
2022/09/13 12:08:29;;;;;;;3.65;0.45;;;23.50;93.70;;;;;;5112925;27;20521;-58
2022/09/13 12:10:56;;;;;;;2.05;0.10;;;23.50;93.90;;;;;;5099933;27;20533;-54
2022/09/13 12:13:26;;;;;;;2.88;0.10;;;23.60;93.90;;;;;;5102094;27;20075;-58
2022/09/13 12:15:56;;;;;;;4.43;0.30;;;23.50;94.00;;;;;;5092053;28;20032;-56
2022/09/13 12:18:39;;;;;;;3.38;0.40;;;23.40;93.80;;;;;;5092459;28;20510;-56
2022/09/13 12:21:13;;;;;;;4.57;0.10;;;23.30;93.60;;;;;;5105068;28;20051;-56
2022/09/13 12:23:51;;;;;;;3.70;0.32;;;23.20;93.70;;;;;;5101645;28;20031;-53
2022/09/13 12:26:29;;;;;;;2.95;0.10;;;23.20;94.10;;;;;;5106360;27;20036;-56
2022/09/13 12:29:00;;;;;;;3.38;0.20;;;23.30;94.40;;;;;;5102943;28;20048;-57
2022/09/13 12:31:29;;;;;;;4.05;0.40;;;23.40;94.10;;;;;;5106296;27;20052;-57
2022/09/13 12:33:55;;;;;;;5.88;0.40;;;23.50;94.40;;;;;;5101053;28;20504;-58
2022/09/13 12:36:52;;;;;;;4.00;0.28;;;23.50;93.70;;;;;;5107132;27;20039;-55
2022/09/13 12:39:30;;;;;;;2.83;0.20;;;23.60;93.00;;;;;;5106405;28;20352;-55
2022/09/13 12:42:17;;;;;;;3.03;0.38;;;23.70;93.20;;;;;;5101043;28;20044;-58
2022/09/13 12:45:04;;;;;;;6.78;0.20;;;23.80;92.40;;;;;;5103294;28;20081;-57
2022/09/13 12:47:45;;;;;;;3.33;0.25;;;23.70;92.90;;;;;;5105254;28;20507;-56
2022/09/13 12:50:27;;;;;;;5.97;0.20;;;23.80;93.10;;;;;;5101740;28;20051;-57
2022/09/13 12:53:28;;;;;;;3.50;0.50;;;23.70;93.30;;;;;;5101405;28;20032;-57
2022/09/13 12:56:25;;;;;;;4.32;0.20;;;23.70;92.80;;;;;;5088231;28;20044;-59
2022/09/13 12:59:09;;;;;;;2.70;0.20;;;23.80;92.30;;;;;;5104620;28;20100;-59
2022/09/13 13:01:34;;;;;;;3.10;0.30;;;23.80;92.50;;;;;;5072569;28;20128;-59
2022/09/13 13:04:15;;;;;;;2.72;0.38;;;23.90;92.60;;;;;;5093783;28;20118;-61
2022/09/13 13:06:52;;;;;;;6.18;0.30;;;24.00;92.50;;;;;;5092512;28;20040;-62
2022/09/13 13:09:33;;;;;;;2.22;0.35;;;24.00;92.20;;;;;;5090715;28;20032;-61